createdAt,value
2022-10-01T00:01:05.000Z,98968.72
2022-10-01T00:03:32.497Z,98975.59
2022-10-01T00:06:00.293Z,99058.94
2022-10-01T00:08:27.938Z,99097.38
2022-10-01T00:10:55.427Z,99030.97
2022-10-01T00:13:22.660Z,98995.09
2022-10-01T00:15:49.779Z,98994.78
2022-10-01T00:18:17.182Z,98979.78
2022-10-01T00:20:44.348Z,98977.84
2022-10-01T00:23:11.878Z,98970.31
2022-10-01T00:25:39.561Z,98976.34
2022-10-01T00:28:06.865Z,98994.31
2022-10-01T00:30:40.240Z,98982.09
2022-10-01T00:33:07.945Z,98987.91
2022-10-01T00:35:35.060Z,98983.59
2022-10-01T00:38:02.167Z,98968.81
2022-10-01T00:40:29.547Z,98971.84
2022-10-01T00:42:56.691Z,98984.66
2022-10-01T00:45:23.809Z,98976.09
2022-10-01T00:47:52.131Z,98980.09
2022-10-01T00:50:24.276Z,98967.66
2022-10-01T00:52:52.957Z,98969.38
2022-10-01T00:55:21.278Z,98969.59
2022-10-01T00:57:48.409Z,98962.97
2022-10-01T01:00:15.985Z,98960.47
2022-10-01T01:02:43.337Z,98958.81
2022-10-01T01:05:12.352Z,98964.19
2022-10-01T01:07:43.106Z,98960.66
2022-10-01T01:10:10.250Z,98962.97
2022-10-01T01:12:45.382Z,98967.59
2022-10-01T01:15:25.772Z,98971.47
2022-10-01T01:18:11.826Z,98968.91
2022-10-01T01:20:45.558Z,98966.16
2022-10-01T01:23:16.103Z,98979.91
2022-10-01T01:26:01.665Z,98966.41
2022-10-01T01:28:32.757Z,98974.00
2022-10-01T01:31:01.258Z,98974.72
2022-10-01T01:33:29.149Z,98976.31
2022-10-01T01:35:57.619Z,98976.59
2022-10-01T01:38:28.969Z,98961.59
2022-10-01T01:40:57.449Z,98972.91
2022-10-01T01:43:26.820Z,98971.66
2022-10-01T01:45:55.186Z,98968.91
2022-10-01T01:48:22.833Z,98971.75
2022-10-01T01:51:16.522Z,98962.97
2022-10-01T01:53:43.650Z,98962.78
2022-10-01T01:56:11.281Z,98943.44
2022-10-01T01:58:38.535Z,98940.22
2022-10-01T02:01:05.660Z,98939.91
2022-10-01T02:03:33.356Z,98944.56
2022-10-01T02:06:12.358Z,98944.56
2022-10-01T02:08:47.480Z,98929.69
2022-10-01T02:11:31.793Z,98918.72
2022-10-01T02:14:12.495Z,98924.47
2022-10-01T02:16:39.498Z,98927.78
2022-10-01T02:19:09.862Z,98944.63
2022-10-01T02:21:55.474Z,98950.19
2022-10-01T02:24:26.629Z,98960.09
2022-10-01T02:26:53.750Z,98964.28
2022-10-01T02:29:21.384Z,98962.88
2022-10-01T02:31:49.250Z,98955.97
2022-10-01T02:34:20.102Z,98948.87
2022-10-01T02:36:47.985Z,98960.00
2022-10-01T02:39:15.654Z,98961.91
2022-10-01T02:41:43.133Z,98966.91
2022-10-01T02:44:10.832Z,98962.66
2022-10-01T02:46:41.613Z,98959.81
2022-10-01T02:49:09.104Z,98961.22
2022-10-01T02:51:48.762Z,98964.66
2022-10-01T02:54:18.172Z,98969.16
2022-10-01T02:57:04.072Z,98966.44
2022-10-01T02:59:31.506Z,98981.06
2022-10-01T03:01:58.717Z,98977.56
2022-10-01T03:04:25.899Z,98979.31
2022-10-01T03:06:53.273Z,98970.63
2022-10-01T03:09:20.389Z,98972.47
2022-10-01T03:11:47.493Z,98966.41
2022-10-01T03:14:14.889Z,98955.75
2022-10-01T03:16:42.001Z,98952.94
2022-10-01T03:19:09.127Z,98969.84
2022-10-01T03:21:36.831Z,98967.50
2022-10-01T03:24:04.274Z,98983.12
2022-10-01T03:26:31.411Z,98994.84
2022-10-01T03:28:58.774Z,99001.06
2022-10-01T03:31:26.044Z,99027.75
2022-10-01T03:33:53.222Z,99005.13
2022-10-01T03:36:20.670Z,99012.47
2022-10-01T03:38:47.787Z,99022.03
2022-10-01T03:41:14.909Z,99026.06
2022-10-01T03:43:42.299Z,99002.44
2022-10-01T03:46:09.451Z,99005.84
2022-10-01T03:48:36.886Z,98989.38
2022-10-01T03:51:04.284Z,98993.59
2022-10-01T03:53:31.690Z,98986.00
2022-10-01T03:55:59.467Z,98995.75
2022-10-01T03:58:26.893Z,98983.78
2022-10-01T04:00:57.990Z,98973.19
2022-10-01T04:03:25.405Z,98965.09
2022-10-01T04:05:52.499Z,98967.72
2022-10-01T04:08:24.069Z,98962.88
2022-10-01T04:10:51.805Z,98966.97
2022-10-01T04:13:19.081Z,98964.31
2022-10-01T04:15:46.438Z,98952.09
2022-10-01T04:18:13.857Z,98958.88
2022-10-01T04:20:41.558Z,98945.22
2022-10-01T04:23:08.737Z,98956.16
2022-10-01T04:25:36.282Z,98950.03
2022-10-01T04:28:04.498Z,98947.28
2022-10-01T04:30:32.977Z,98956.06
2022-10-01T04:33:00.330Z,98965.37
2022-10-01T04:35:27.769Z,98953.44
2022-10-01T04:37:55.869Z,98946.56
2022-10-01T04:40:23.505Z,98947.53
2022-10-01T04:42:50.702Z,98959.44
2022-10-01T04:45:17.851Z,98953.56
2022-10-01T04:47:51.851Z,98956.34
2022-10-01T04:50:19.160Z,98964.87
2022-10-01T04:52:48.850Z,98959.16
2022-10-01T04:55:16.421Z,98966.75
2022-10-01T04:57:44.075Z,98969.19
2022-10-01T05:00:12.731Z,98973.22
2022-10-01T05:02:39.867Z,98973.59
2022-10-01T05:05:07.436Z,98965.84
2022-10-01T05:07:35.141Z,98974.72
2022-10-01T05:10:02.322Z,99002.00
2022-10-01T05:12:30.005Z,99020.78
2022-10-01T05:14:57.431Z,99025.34
2022-10-01T05:17:24.554Z,99009.09
2022-10-01T05:19:51.767Z,99014.50
2022-10-01T05:22:19.389Z,99022.06
2022-10-01T05:24:47.497Z,99018.78
2022-10-01T05:27:14.737Z,99005.22
2022-10-01T05:29:42.217Z,99006.44
2022-10-01T05:32:10.138Z,98995.66
2022-10-01T05:34:37.304Z,98992.75
2022-10-01T05:37:04.984Z,98985.19
2022-10-01T05:39:32.868Z,98994.53
2022-10-01T05:42:06.189Z,98993.72
2022-10-01T05:44:37.972Z,99008.78
2022-10-01T05:47:06.224Z,98995.97
2022-10-01T05:49:33.591Z,99009.47
2022-10-01T05:52:01.158Z,99014.66
2022-10-01T05:54:29.525Z,99006.75
2022-10-01T05:56:57.057Z,98994.63
2022-10-01T05:59:28.477Z,98980.28
2022-10-01T06:01:58.675Z,98977.09
2022-10-01T06:04:26.152Z,98971.53
2022-10-01T06:06:53.587Z,98966.25
2022-10-01T06:09:20.704Z,98954.16
2022-10-01T06:11:48.995Z,98946.22
2022-10-01T06:14:17.383Z,98945.09
2022-10-01T06:16:44.734Z,98943.88
2022-10-01T06:19:12.219Z,98941.31
2022-10-01T06:21:39.333Z,98934.78
2022-10-01T06:24:09.333Z,98936.13
2022-10-01T06:26:36.753Z,98959.09
2022-10-01T06:29:03.897Z,98972.81
2022-10-01T06:31:31.083Z,98980.81
2022-10-01T06:33:58.569Z,98973.03
2022-10-01T06:36:25.687Z,98973.25
2022-10-01T06:38:52.980Z,98971.09
2022-10-01T06:41:20.398Z,98977.03
2022-10-01T06:43:48.471Z,98976.41
2022-10-01T06:46:15.620Z,98969.69
2022-10-01T06:48:43.076Z,98977.41
2022-10-01T06:51:10.206Z,98985.94
2022-10-01T06:53:37.348Z,98992.59
2022-10-01T06:56:08.596Z,98990.91
2022-10-01T06:58:37.394Z,98986.72
2022-10-01T07:01:04.977Z,98983.22
2022-10-01T07:03:32.183Z,98991.78
2022-10-01T07:06:03.860Z,98979.69
2022-10-01T07:08:31.258Z,98971.81
2022-10-01T07:11:02.556Z,98966.44
2022-10-01T07:13:29.726Z,98962.91
2022-10-01T07:15:57.199Z,98961.03
2022-10-01T07:18:24.358Z,98961.28
2022-10-01T07:20:51.497Z,98944.53
2022-10-01T07:23:18.922Z,98963.47
2022-10-01T07:25:46.062Z,98969.34
2022-10-01T07:28:16.631Z,98956.13
2022-10-01T07:30:47.406Z,98960.94
2022-10-01T07:33:17.673Z,98948.97
2022-10-01T07:35:47.760Z,98946.97
2022-10-01T07:38:15.018Z,98946.06
2022-10-01T07:40:42.121Z,98941.25
2022-10-01T07:43:09.768Z,98946.88
2022-10-01T07:45:36.923Z,98951.84
2022-10-01T07:48:04.345Z,98946.03
2022-10-01T07:50:31.776Z,98947.16
2022-10-01T07:53:00.120Z,98954.38
2022-10-01T07:55:28.069Z,98951.34
2022-10-01T07:57:56.314Z,98954.53
2022-10-01T08:00:26.627Z,98955.38
2022-10-01T08:02:56.000Z,98952.47
2022-10-01T08:05:30.455Z,98955.56
2022-10-01T08:07:58.590Z,98953.72
2022-10-01T08:10:25.885Z,98944.44
2022-10-01T08:12:59.055Z,98936.78
2022-10-01T08:15:26.451Z,98948.81
2022-10-01T08:17:53.583Z,98933.66
2022-10-01T08:20:21.509Z,98939.69
2022-10-01T08:22:48.897Z,98946.97
2022-10-01T08:25:16.000Z,98941.66
2022-10-01T08:27:43.110Z,98933.31
2022-10-01T08:30:10.589Z,98926.56
2022-10-01T08:32:37.731Z,98915.22
2022-10-01T08:35:05.360Z,98915.97
2022-10-01T08:37:32.916Z,98920.50
2022-10-01T08:40:00.215Z,98919.09
2022-10-01T08:42:33.427Z,98914.62
2022-10-01T08:45:02.997Z,98915.62
2022-10-01T08:47:30.220Z,98908.91
2022-10-01T08:50:00.968Z,98908.94
2022-10-01T08:52:28.898Z,98904.66
2022-10-01T08:55:00.627Z,98903.50
2022-10-01T08:57:31.322Z,98909.56
2022-10-01T08:59:59.579Z,98898.41
2022-10-01T09:02:26.645Z,98908.41
2022-10-01T09:05:00.345Z,98899.09
2022-10-01T09:07:51.516Z,98897.75
2022-10-01T09:10:24.776Z,98895.06
2022-10-01T09:13:11.057Z,98897.63
2022-10-01T09:15:41.366Z,98902.09
2022-10-01T09:18:15.959Z,98905.09
2022-10-01T09:20:44.122Z,98902.03
2022-10-01T09:23:18.908Z,98901.59
2022-10-01T09:25:47.922Z,98899.50
2022-10-01T09:28:21.574Z,98900.31
2022-10-01T09:30:55.834Z,98882.38
2022-10-01T09:33:24.834Z,98896.28
2022-10-01T09:36:04.122Z,98890.19
2022-10-01T09:38:41.772Z,98896.28
2022-10-01T09:41:13.155Z,98900.56
2022-10-01T09:43:41.136Z,98889.28
2022-10-01T09:46:14.533Z,98889.69
2022-10-01T09:48:57.261Z,98882.41
2022-10-01T09:51:57.084Z,98889.38
2022-10-01T09:54:27.577Z,98886.63
2022-10-01T09:56:57.049Z,98878.09
2022-10-01T09:59:27.132Z,98880.09
2022-10-01T10:01:57.041Z,98872.44
2022-10-01T10:04:24.667Z,98871.56
2022-10-01T10:06:53.517Z,98865.75
2022-10-01T10:09:21.944Z,98850.91
2022-10-01T10:11:49.336Z,98859.13
2022-10-01T10:14:28.764Z,98858.25
2022-10-01T10:16:56.717Z,98865.56
2022-10-01T10:19:25.887Z,98863.03
2022-10-01T10:21:54.441Z,98863.06
2022-10-01T10:24:24.841Z,98859.06
2022-10-01T10:26:56.129Z,98855.38
2022-10-01T10:29:28.165Z,98855.38
2022-10-01T10:31:55.536Z,98845.84
2022-10-01T10:34:38.426Z,98838.84
2022-10-01T10:37:06.875Z,98843.59
2022-10-01T10:39:37.753Z,98848.88
2022-10-01T10:42:05.940Z,98834.87
2022-10-01T10:44:38.850Z,98840.28
2022-10-01T10:47:10.033Z,98840.31
2022-10-01T10:49:51.833Z,98823.69
2022-10-01T10:52:29.739Z,98829.28
2022-10-01T10:54:59.918Z,98826.44
2022-10-01T10:57:28.218Z,98819.31
2022-10-01T11:00:11.020Z,98813.56
2022-10-01T11:02:39.385Z,98809.72
2022-10-01T11:05:16.867Z,98806.22
2022-10-01T11:07:44.861Z,98802.19
2022-10-01T11:10:30.638Z,98792.34
2022-10-01T11:13:07.174Z,98794.63
2022-10-01T11:15:40.141Z,98778.69
2022-10-01T11:18:26.245Z,98772.66
2022-10-01T11:21:16.348Z,98765.50
2022-10-01T11:23:48.284Z,98771.91
2022-10-01T11:26:34.437Z,98764.31
2022-10-01T11:29:15.466Z,98764.09
2022-10-01T11:31:49.687Z,98757.72
2022-10-01T11:34:23.615Z,98755.25
2022-10-01T11:37:10.938Z,98748.66
2022-10-01T11:39:38.359Z,98739.66
2022-10-01T11:42:06.708Z,98736.03
2022-10-01T11:44:36.771Z,98729.22
2022-10-01T11:47:11.538Z,98725.44
2022-10-01T11:49:44.617Z,98725.34
2022-10-01T11:52:14.734Z,98719.38
2022-10-01T11:54:54.225Z,98729.25
2022-10-01T11:57:42.105Z,98722.66
2022-10-01T12:00:10.712Z,98719.91
2022-10-01T12:02:39.209Z,98724.06
2022-10-01T12:05:26.906Z,98711.84
2022-10-01T12:07:53.989Z,98712.78
2022-10-01T12:10:40.173Z,98719.19
2022-10-01T12:13:16.134Z,98713.63
2022-10-01T12:15:45.387Z,98708.41
2022-10-01T12:18:15.535Z,98709.62
2022-10-01T12:20:46.556Z,98710.56
2022-10-01T12:23:15.184Z,98708.13
2022-10-01T12:25:51.162Z,98706.78
2022-10-01T12:28:19.843Z,98708.16
2022-10-01T12:30:53.893Z,98700.00
2022-10-01T12:33:36.541Z,98707.22
2022-10-01T12:36:03.647Z,98705.81
2022-10-01T12:38:42.057Z,98698.94
2022-10-01T12:41:15.291Z,98706.72
2022-10-01T12:43:47.936Z,98701.19
2022-10-01T12:46:21.139Z,98702.06
2022-10-01T12:48:54.897Z,98701.91
2022-10-01T12:51:28.328Z,98688.63
2022-10-01T12:54:14.648Z,98684.63
2022-10-01T12:56:45.508Z,98666.78
2022-10-01T12:59:17.486Z,98664.38
2022-10-01T13:01:44.585Z,98664.38
2022-10-01T13:04:24.296Z,98661.81
2022-10-01T13:07:01.703Z,98650.97
2022-10-01T13:09:35.006Z,98645.72
2022-10-01T13:12:08.220Z,98643.13
2022-10-01T13:14:35.338Z,98642.00
2022-10-01T13:17:04.510Z,98643.38
2022-10-01T13:19:40.803Z,98632.50
2022-10-01T13:22:16.287Z,98624.03
2022-10-01T13:24:46.940Z,98620.72
2022-10-01T13:27:29.870Z,98618.53
2022-10-01T13:30:01.154Z,98609.66
2022-10-01T13:32:51.304Z,98598.00
2022-10-01T13:35:35.533Z,98589.53
2022-10-01T13:38:17.212Z,98583.97
2022-10-01T13:40:44.309Z,98602.62
2022-10-01T13:43:15.336Z,98618.09
2022-10-01T13:45:43.405Z,98625.47
2022-10-01T13:48:10.442Z,98631.91
2022-10-01T13:50:41.319Z,98632.41
2022-10-01T13:53:15.041Z,98627.16
2022-10-01T13:55:43.705Z,98624.44
2022-10-01T13:58:29.535Z,98617.94
2022-10-01T14:00:57.919Z,98607.84
2022-10-01T14:03:33.609Z,98604.00
2022-10-01T14:06:01.372Z,98609.56
2022-10-01T14:08:29.668Z,98606.47
2022-10-01T14:11:36.990Z,98619.69
2022-10-01T14:14:28.434Z,98615.34
2022-10-01T14:16:56.394Z,98618.84
2022-10-01T14:19:25.179Z,98616.91
2022-10-01T14:22:08.005Z,98616.72
2022-10-01T14:24:57.607Z,98615.56
2022-10-01T14:27:31.684Z,98619.75
2022-10-01T14:30:17.972Z,98611.75
2022-10-01T14:32:50.968Z,98617.09
2022-10-01T14:35:37.186Z,98613.22
2022-10-01T14:38:04.869Z,98610.53
2022-10-01T14:40:39.474Z,98602.66
2022-10-01T14:43:15.797Z,98595.41
2022-10-01T14:45:52.326Z,98585.13
2022-10-01T14:48:19.611Z,98595.00
2022-10-01T14:50:49.304Z,98595.81
2022-10-01T14:53:17.197Z,98595.97
2022-10-01T14:55:44.471Z,98589.22
2022-10-01T14:58:17.068Z,98593.59
2022-10-01T15:00:48.089Z,98601.16
2022-10-01T15:03:15.829Z,98600.25
2022-10-01T15:05:43.304Z,98600.97
2022-10-01T15:08:11.777Z,98607.72
2022-10-01T15:10:45.430Z,98609.19
2022-10-01T15:13:19.997Z,98609.47
2022-10-01T15:15:47.378Z,98609.97
2022-10-01T15:18:14.732Z,98609.44
2022-10-01T15:21:00.600Z,98621.00
2022-10-01T15:23:28.880Z,98621.34
2022-10-01T15:25:56.917Z,98620.25
2022-10-01T15:28:32.885Z,98621.06
2022-10-01T15:31:00.979Z,98625.81
2022-10-01T15:33:29.583Z,98623.75
2022-10-01T15:35:58.038Z,98628.63
2022-10-01T15:38:25.926Z,98624.25
2022-10-01T15:41:05.020Z,98615.38
2022-10-01T15:43:42.105Z,98629.28
2022-10-01T15:46:15.323Z,98615.97
2022-10-01T15:48:42.721Z,98617.09
2022-10-01T15:51:20.703Z,98624.72
2022-10-01T15:53:48.113Z,98631.97
2022-10-01T15:56:16.597Z,98630.78
2022-10-01T15:58:46.772Z,98626.47
2022-10-01T16:01:15.315Z,98631.50
2022-10-01T16:04:02.416Z,98629.22
2022-10-01T16:06:33.833Z,98630.25
2022-10-01T16:09:06.013Z,98630.81
2022-10-01T16:11:49.956Z,98620.03
2022-10-01T16:14:34.675Z,98622.88
2022-10-01T16:17:17.346Z,98622.91
2022-10-01T16:19:45.322Z,98622.13
2022-10-01T16:22:14.688Z,98620.69
2022-10-01T16:24:42.706Z,98623.97
2022-10-01T16:27:12.786Z,98627.91
2022-10-01T16:29:39.902Z,98623.00
2022-10-01T16:32:08.218Z,98636.16
2022-10-01T16:34:35.590Z,98628.13
2022-10-01T16:37:02.731Z,98624.06
2022-10-01T16:39:29.844Z,98630.16
2022-10-01T16:42:22.181Z,98635.72
2022-10-01T16:44:44.339Z,98630.09
2022-10-01T16:47:12.138Z,98622.22
2022-10-01T16:49:39.269Z,98618.06
2022-10-01T16:52:06.507Z,98629.84
2022-10-01T16:54:34.334Z,98623.09
2022-10-01T16:57:01.981Z,98620.16
2022-10-01T16:59:29.143Z,98627.69
2022-10-01T17:01:57.459Z,98622.22
2022-10-01T17:04:29.239Z,98622.69
2022-10-01T17:06:59.647Z,98620.38
2022-10-01T17:09:26.955Z,98615.53
2022-10-01T17:11:54.123Z,98610.34
2022-10-01T17:14:21.530Z,98597.75
2022-10-01T17:16:50.533Z,98599.09
2022-10-01T17:19:18.255Z,98598.78
2022-10-01T17:21:45.680Z,98599.81
2022-10-01T17:24:13.101Z,98596.72
2022-10-01T17:26:40.695Z,98605.47
2022-10-01T17:29:08.754Z,98601.09
2022-10-01T17:31:36.700Z,98603.66
2022-10-01T17:34:04.393Z,98597.59
2022-10-01T17:36:32.008Z,98608.16
2022-10-01T17:38:59.220Z,98607.19
2022-10-01T17:41:26.459Z,98597.31
2022-10-01T17:43:53.860Z,98608.59
2022-10-01T17:46:21.074Z,98618.25
2022-10-01T17:48:49.393Z,98623.84
2022-10-01T17:51:17.068Z,98621.94
2022-10-01T17:53:44.197Z,98621.37
2022-10-01T17:56:18.026Z,98623.38
2022-10-01T17:58:51.803Z,98624.44
2022-10-01T18:01:22.272Z,98639.75
2022-10-01T18:03:55.024Z,98633.88
2022-10-01T18:06:22.796Z,98641.47
2022-10-01T18:08:55.545Z,98652.00
2022-10-01T18:11:24.221Z,98642.88
2022-10-01T18:13:52.007Z,98632.56
2022-10-01T18:16:19.653Z,98625.47
2022-10-01T18:21:34.420Z,98638.28
2022-10-01T18:24:04.530Z,98649.78
2022-10-01T18:26:32.527Z,98665.22
2022-10-01T18:29:00.122Z,98668.63
2022-10-01T18:31:27.752Z,98680.41
2022-10-01T18:33:58.915Z,98682.56
2022-10-01T18:36:27.481Z,98680.09
2022-10-01T18:38:58.632Z,98680.03
2022-10-01T18:41:36.290Z,98689.06
2022-10-01T18:44:04.101Z,98696.53
2022-10-01T18:46:38.453Z,98689.19
2022-10-01T18:49:05.816Z,98707.13
2022-10-01T18:51:52.142Z,98700.78
2022-10-01T18:54:19.476Z,98705.00
2022-10-01T18:57:05.807Z,98694.16
2022-10-01T18:59:33.262Z,98700.84
2022-10-01T19:02:04.427Z,98694.25
2022-10-01T19:04:35.438Z,98716.06
2022-10-01T19:07:19.923Z,98718.69
2022-10-01T19:09:56.654Z,98720.06
2022-10-01T19:12:27.178Z,98706.97
2022-10-01T19:14:57.497Z,98704.81
2022-10-01T19:17:24.845Z,98719.94
2022-10-01T19:19:54.771Z,98701.41
2022-10-01T19:22:24.595Z,98712.06
2022-10-01T19:24:55.035Z,98702.03
2022-10-01T19:27:31.505Z,98702.41
2022-10-01T19:29:58.810Z,98715.56
2022-10-01T19:32:27.355Z,98716.41
2022-10-01T19:35:03.008Z,98718.81
2022-10-01T19:37:36.848Z,98722.31
2022-10-01T19:40:07.971Z,98729.25
2022-10-01T19:42:36.873Z,98736.84
2022-10-01T19:45:19.796Z,98737.28
2022-10-01T19:47:51.170Z,98744.63
2022-10-01T19:50:18.297Z,98742.81
2022-10-01T19:52:48.303Z,98742.38
2022-10-01T19:55:16.226Z,98745.72
2022-10-01T19:57:43.708Z,98740.50
2022-10-01T20:00:17.412Z,98754.16
2022-10-01T20:03:04.068Z,98749.75
2022-10-01T20:05:49.769Z,98740.19
2022-10-01T20:08:27.708Z,98753.41
2022-10-01T20:10:55.993Z,98743.16
2022-10-01T20:13:23.335Z,98749.44
2022-10-01T20:15:53.388Z,98748.91
2022-10-01T20:18:27.745Z,98753.84
2022-10-01T20:21:18.170Z,98755.44
2022-10-01T20:24:07.765Z,98758.00
2022-10-01T20:26:38.361Z,98759.53
2022-10-01T20:29:24.793Z,98765.16
2022-10-01T20:32:04.640Z,98762.28
2022-10-01T20:34:44.158Z,98757.97
2022-10-01T20:37:14.354Z,98765.31
2022-10-01T20:40:01.741Z,98765.03
2022-10-01T20:42:30.944Z,98770.69
2022-10-01T20:45:00.506Z,98773.56
2022-10-01T20:47:29.219Z,98779.47
2022-10-01T20:50:09.582Z,98774.28
2022-10-01T20:52:41.692Z,98779.63
2022-10-01T20:55:31.935Z,98783.88
2022-10-01T20:58:00.273Z,98793.38
2022-10-01T21:00:27.908Z,98799.59
2022-10-01T21:03:05.123Z,98798.41
2022-10-01T21:05:37.710Z,98813.38
2022-10-01T21:08:06.753Z,98808.53
2022-10-01T21:10:44.857Z,98801.88
2022-10-01T21:13:13.994Z,98811.53
2022-10-01T21:15:45.133Z,98812.75
2022-10-01T21:18:15.869Z,98819.03
2022-10-01T21:20:55.189Z,98824.38
2022-10-01T21:23:31.565Z,98835.03
2022-10-01T21:26:12.215Z,98827.66
2022-10-01T21:28:46.662Z,98817.25
2022-10-01T21:31:29.383Z,98823.41
2022-10-01T21:34:03.757Z,98812.09
2022-10-01T21:36:33.689Z,98812.00
2022-10-01T21:39:01.117Z,98799.81
2022-10-01T21:41:32.208Z,98810.84
2022-10-01T21:44:17.971Z,98822.06
2022-10-01T21:46:55.721Z,98818.38
2022-10-01T21:49:29.228Z,98822.66
2022-10-01T21:52:03.651Z,98826.56
2022-10-01T21:54:49.990Z,98816.81
2022-10-01T21:57:35.920Z,98808.59
2022-10-01T22:00:09.158Z,98808.25
2022-10-01T22:02:45.735Z,98805.37
2022-10-01T22:05:25.008Z,98812.66
2022-10-01T22:07:58.579Z,98821.53
2022-10-01T22:10:31.740Z,98813.91
2022-10-01T22:13:00.633Z,98815.75
2022-10-01T22:15:39.749Z,98819.97
2022-10-01T22:18:07.990Z,98816.62
2022-10-01T22:20:35.133Z,98818.44
2022-10-01T22:23:03.598Z,98828.72
2022-10-01T22:25:30.973Z,98829.25
2022-10-01T22:28:00.010Z,98830.53
2022-10-01T22:30:28.949Z,98824.09
2022-10-01T22:33:10.182Z,98832.75
2022-10-01T22:35:46.559Z,98830.13
2022-10-01T22:38:18.820Z,98826.06
2022-10-01T22:40:47.237Z,98841.19
2022-10-01T22:43:14.631Z,98843.28
2022-10-01T22:45:41.687Z,98847.22
2022-10-01T22:48:11.714Z,98851.78
2022-10-01T22:50:42.162Z,98852.25
2022-10-01T22:53:15.616Z,98850.78
2022-10-01T22:55:43.293Z,98860.19
2022-10-01T22:58:13.507Z,98854.34
2022-10-01T23:01:01.650Z,98864.78
2022-10-01T23:03:29.085Z,98869.97
2022-10-01T23:06:06.134Z,98864.00
2022-10-01T23:08:36.556Z,98872.03
2022-10-01T23:11:18.920Z,98865.66
2022-10-01T23:13:52.091Z,98865.28
2022-10-01T23:16:19.216Z,98860.13
2022-10-01T23:18:52.372Z,98850.97
2022-10-01T23:21:32.706Z,98846.34
2022-10-01T23:24:18.843Z,98843.84
2022-10-01T23:26:56.879Z,98845.38
2022-10-01T23:29:26.680Z,98841.97
2022-10-01T23:31:59.835Z,98834.66
2022-10-01T23:34:29.636Z,98837.84
2022-10-01T23:37:15.582Z,98831.34
2022-10-01T23:39:55.509Z,98833.78
2022-10-01T23:42:34.859Z,98842.00
2022-10-01T23:45:18.055Z,98840.69
2022-10-01T23:47:54.156Z,98851.16
2022-10-01T23:50:23.196Z,98860.47
2022-10-01T23:53:09.310Z,98866.00
2022-10-01T23:56:15.814Z,98862.22
2022-10-01T23:58:47.392Z,98866.41
